Painkiller — WDH9752 — position and weather

sailwx.info

Track history (hours):
 
Tides and Currents Weather Stations Pressure Air Temp Water Temp Dewpoint Dewpoint Depression Visibility Wind Speed Wind Dir Waves Ship Positions

Painkiller

Owner: Chevalier, Gregory j, West Linn, OR. More information available from US FCC via Universal Licensing System and Coast Guard Vessel Documentation Center.

Last reported at 2018-Feb-20 02:12 UTC. Time now 2018-Feb-24 15:27 UTC.
Position N 45°36' W 122°39'.

Type: Pleasure craft. MMSI: 367671240.

Date/timePositionNaut miles runAvg speedWind from/ knotsBaromVisibWave heightAir tempDewpointWater temp
2018-Feb-20 02:12N 45°36' W 122°39'1 3.0
2018-Feb-20 02:00N 45°36' W 122°40'3 6.7
2018-Feb-20 01:30N 45°38' W 122°44'3 0.4
2018-Feb-19 18:49N 45°40' W 122°46'2 3.5
2018-Feb-19 18:09N 45°43' W 122°46'1 8.9
2018-Feb-19 18:00N 45°44' W 122°45'1 0.1
2018-Feb-19 00:06N 45°45' W 122°46'0 1.8
2018-Feb-18 23:58N 45°45' W 122°46'1 2.5
2018-Feb-18 23:28N 45°46' W 122°46'0 0.0
2018-Feb-18 22:55N 45°46' W 122°46'0 0.0
2018-Feb-18 22:28N 45°46' W 122°46'0 0.0
2018-Feb-18 21:58N 45°46' W 122°46'0 0.0
2018-Feb-18 21:28N 45°46' W 122°46'0 0.0
2018-Feb-18 20:58N 45°46' W 122°46'0 0.0
2018-Feb-18 20:22N 45°46' W 122°46'0 0.0
2018-Feb-18 19:58N 45°46' W 122°46'0 0.0
2018-Feb-18 19:25N 45°46' W 122°46'0 0.0
2018-Feb-18 18:46N 45°46' W 122°46'0 0.0
2018-Feb-18 18:16N 45°46' W 122°46'0 0.1
2018-Feb-18 17:56N 45°46' W 122°46'1 3.1
2018-Feb-18 17:28N 45°45' W 122°46'0 0.0
2018-Feb-17 23:01N 45°45' W 122°46'0 3.9
2018-Feb-17 22:59N 45°45' W 122°46'611.9
2018-Feb-17 22:29N 45°39' W 122°46'5 9.1
2018-Feb-17 21:59N 45°36' W 122°40'1 1.2
2018-Feb-17 21:24N 45°36' W 122°39'  
Track history (hours):
 
Tides and Currents Weather Stations Pressure Air Temp Water Temp Dewpoint Dewpoint Depression Visibility Wind Speed Wind Dir Waves Ship Positions

Painkiller

Owner: Chevalier, Gregory j, West Linn, OR. More information available from US FCC via Universal Licensing System and Coast Guard Vessel Documentation Center.

Last reported at 2018-Feb-20 02:12 UTC. Time now 2018-Feb-24 15:27 UTC.
Position N 45°36' W 122°39'.

Type: Pleasure craft. MMSI: 367671240.

Date/timePositionNaut miles runAvg speedWind from/ knotsBaromVisibWave heightAir tempDewpointWater temp
2018-Feb-20 02:12N 45°36' W 122°39'1 3.0
2018-Feb-20 02:00N 45°36' W 122°40'3 6.7
2018-Feb-20 01:30N 45°38' W 122°44'3 0.4
2018-Feb-19 18:49N 45°40' W 122°46'2 3.5
2018-Feb-19 18:09N 45°43' W 122°46'1 8.9
2018-Feb-19 18:00N 45°44' W 122°45'1 0.1
2018-Feb-19 00:06N 45°45' W 122°46'0 1.8
2018-Feb-18 23:58N 45°45' W 122°46'1 2.5
2018-Feb-18 23:28N 45°46' W 122°46'0 0.0
2018-Feb-18 22:55N 45°46' W 122°46'0 0.0
2018-Feb-18 22:28N 45°46' W 122°46'0 0.0
2018-Feb-18 21:58N 45°46' W 122°46'0 0.0
2018-Feb-18 21:28N 45°46' W 122°46'0 0.0
2018-Feb-18 20:58N 45°46' W 122°46'0 0.0
2018-Feb-18 20:22N 45°46' W 122°46'0 0.0
2018-Feb-18 19:58N 45°46' W 122°46'0 0.0
2018-Feb-18 19:25N 45°46' W 122°46'0 0.0
2018-Feb-18 18:46N 45°46' W 122°46'0 0.0
2018-Feb-18 18:16N 45°46' W 122°46'0 0.1
2018-Feb-18 17:56N 45°46' W 122°46'1 3.1
2018-Feb-18 17:28N 45°45' W 122°46'0 0.0
2018-Feb-17 23:01N 45°45' W 122°46'0 3.9
2018-Feb-17 22:59N 45°45' W 122°46'611.9
2018-Feb-17 22:29N 45°39' W 122°46'5 9.1
2018-Feb-17 21:59N 45°36' W 122°40'1 1.2
2018-Feb-17 21:24N 45°36' W 122°39'  

Dump ship's entire track history